createdAt,value
2019-02-16T00:04:06.318Z,20.95
2019-02-16T00:10:10.549Z,21.82
2019-02-16T00:16:14.837Z,22.50
2019-02-16T00:22:19.109Z,21.35
2019-02-16T00:28:23.339Z,22.33
2019-02-16T00:34:27.669Z,21.82
2019-02-16T00:40:31.908Z,23.43
2019-02-16T00:46:36.293Z,24.13
2019-02-16T00:52:40.494Z,22.33
2019-02-16T00:58:44.825Z,22.50
2019-02-16T01:04:49.071Z,22.57
2019-02-16T01:10:53.465Z,22.65
2019-02-16T01:16:57.728Z,22.67
2019-02-16T01:23:02.102Z,23.75
2019-02-16T01:29:06.412Z,21.77
2019-02-16T01:35:10.909Z,20.47
2019-02-16T01:41:15.294Z,23.40
2019-02-16T01:47:19.597Z,25.27
2019-02-16T01:53:26.195Z,22.60
2019-02-16T01:59:30.534Z,23.13
2019-02-16T02:05:34.916Z,23.50
2019-02-16T02:11:39.419Z,25.05
2019-02-16T02:17:43.963Z,24.47
2019-02-16T02:23:48.302Z,24.02
2019-02-16T02:29:52.736Z,20.88
2019-02-16T02:35:57.113Z,23.70
2019-02-16T02:42:01.535Z,24.12
2019-02-16T02:48:05.884Z,22.62
2019-02-16T02:54:10.279Z,23.18
2019-02-16T03:00:14.819Z,24.93
2019-02-16T03:06:19.267Z,23.87
2019-02-16T03:12:23.722Z,22.82
2019-02-16T03:18:28.068Z,23.67
2019-02-16T03:24:32.515Z,24.50
2019-02-16T03:31:00.642Z,24.63
2019-02-16T03:37:46.075Z,25.87
2019-02-16T03:43:50.485Z,25.20
2019-02-16T03:49:54.885Z,25.90
2019-02-16T03:56:01.673Z,23.93
2019-02-16T04:02:06.010Z,26.57
2019-02-16T04:08:10.384Z,22.60
2019-02-16T04:14:14.904Z,24.50
2019-02-16T04:20:19.262Z,24.20
2019-02-16T04:26:23.688Z,22.73
2019-02-16T04:32:28.072Z,22.63
2019-02-16T04:38:32.280Z,24.40
2019-02-16T04:44:36.794Z,25.23
2019-02-16T04:50:41.033Z,24.73
2019-02-16T04:56:45.293Z,25.80
2019-02-16T05:02:49.545Z,25.23
2019-02-16T05:08:53.825Z,26.33
2019-02-16T05:14:59.018Z,24.83
2019-02-16T05:21:03.344Z,25.53
2019-02-16T05:27:07.638Z,25.87
2019-02-16T05:33:11.959Z,25.60
2019-02-16T05:39:16.187Z,25.00
2019-02-16T05:45:20.673Z,27.70
2019-02-16T05:51:24.897Z,25.80
2019-02-16T05:57:29.117Z,31.47
2019-02-16T06:03:33.434Z,27.83
2019-02-16T06:09:37.678Z,26.23
2019-02-16T06:15:41.879Z,25.90
2019-02-16T06:21:48.669Z,28.40
2019-02-16T06:27:52.969Z,27.00
2019-02-16T06:33:57.175Z,31.83
2019-02-16T06:40:01.521Z,28.03
2019-02-16T06:46:05.764Z,29.63
2019-02-16T06:52:10.944Z,30.33
2019-02-16T06:58:15.251Z,29.53
2019-02-16T07:04:19.595Z,31.07
2019-02-16T07:10:23.921Z,32.27
2019-02-16T07:17:05.628Z,30.30
2019-02-16T07:23:09.946Z,31.87
2019-02-16T07:29:14.376Z,30.20
2019-02-16T07:35:18.722Z,30.40
2019-02-16T07:41:26.048Z,28.37
2019-02-16T07:47:49.447Z,28.77
2019-02-16T07:54:03.926Z,30.60
2019-02-16T08:00:28.419Z,28.50
2019-02-16T08:06:51.709Z,26.70
2019-02-16T08:13:11.521Z,30.83
2019-02-16T08:19:34.794Z,28.27
2019-02-16T08:25:58.157Z,30.43
2019-02-16T08:32:19.849Z,30.10
2019-02-16T08:38:52.350Z,29.33
2019-02-16T08:45:24.587Z,30.88
2019-02-16T08:51:47.875Z,29.12
2019-02-16T08:58:06.158Z,29.18
2019-02-16T09:04:24.407Z,27.30
2019-02-16T09:10:47.950Z,29.42
2019-02-16T09:17:13.254Z,28.90
2019-02-16T09:23:42.268Z,27.27
2019-02-16T09:30:08.541Z,26.10
2019-02-16T09:36:23.921Z,27.52
2019-02-16T09:42:43.875Z,30.17
2019-02-16T09:49:02.042Z,26.50
2019-02-16T09:55:24.552Z,27.15
2019-02-16T10:01:46.578Z,25.55
2019-02-16T10:08:02.052Z,25.80
2019-02-16T10:14:30.134Z,30.60
2019-02-16T10:20:51.290Z,29.82
2019-02-16T10:27:20.597Z,23.70
2019-02-16T10:33:40.884Z,20.15
2019-02-16T10:40:13.498Z,23.30
2019-02-16T10:46:36.751Z,24.43
2019-02-16T10:53:00.044Z,25.00
2019-02-16T10:59:32.644Z,16.37
2019-02-16T11:05:51.447Z,22.37
2019-02-16T11:12:18.629Z,21.37
2019-02-16T11:18:57.220Z,21.20
2019-02-16T11:25:20.453Z,18.25
2019-02-16T11:31:42.715Z,21.75
2019-02-16T11:38:09.049Z,21.57
2019-02-16T11:44:41.072Z,22.67
2019-02-16T11:51:00.876Z,20.90
2019-02-16T11:57:33.492Z,26.05
2019-02-16T12:03:46.553Z,20.27
2019-02-16T12:10:08.208Z,22.40
2019-02-16T12:16:34.752Z,21.45
2019-02-16T12:23:07.078Z,20.08
2019-02-16T12:29:25.507Z,22.30
2019-02-16T12:35:43.578Z,24.60
2019-02-16T12:42:13.237Z,21.95
2019-02-16T12:48:25.115Z,22.62
2019-02-16T12:55:03.379Z,21.15
2019-02-16T13:01:25.558Z,21.60
2019-02-16T13:07:37.627Z,20.68
2019-02-16T13:14:04.112Z,11.60
2019-02-16T13:20:20.534Z,11.33
2019-02-16T13:26:53.033Z,20.95
2019-02-16T13:33:17.536Z,22.27
2019-02-16T13:39:32.656Z,19.32
2019-02-16T13:45:44.344Z,12.80
2019-02-16T13:52:19.678Z,22.60
2019-02-16T13:58:48.998Z,22.98
2019-02-16T14:05:15.495Z,22.13
2019-02-16T14:11:42.120Z,21.30
2019-02-16T14:17:45.490Z,21.77
2019-02-16T14:23:49.896Z,22.87
2019-02-16T14:29:57.308Z,21.17
2019-02-16T14:36:01.551Z,21.90
2019-02-16T14:42:05.820Z,22.30
2019-02-16T14:48:10.090Z,27.07
2019-02-16T14:54:14.647Z,23.30
2019-02-16T15:00:20.412Z,21.93
2019-02-16T15:06:24.864Z,22.73
2019-02-16T15:12:29.333Z,24.47
2019-02-16T15:18:33.705Z,24.92
2019-02-16T15:24:38.460Z,25.37
2019-02-16T15:30:43.153Z,25.05
2019-02-16T15:36:47.594Z,26.37
2019-02-16T15:42:51.837Z,26.37
2019-02-16T15:48:56.533Z,24.77
2019-02-16T15:55:00.889Z,24.65
2019-02-16T16:01:05.487Z,22.87
2019-02-16T16:07:14.735Z,24.37
2019-02-16T16:13:47.314Z,30.62
2019-02-16T16:19:59.443Z,27.10
2019-02-16T16:26:23.910Z,29.57
2019-02-16T16:32:41.929Z,27.85
2019-02-16T16:39:17.562Z,25.43
2019-02-16T16:45:40.911Z,24.70
2019-02-16T16:52:04.291Z,23.35
2019-02-16T16:58:26.609Z,24.47
2019-02-16T17:04:40.438Z,24.67
2019-02-16T17:10:54.646Z,25.68
2019-02-16T17:17:16.918Z,25.40
2019-02-16T17:23:32.923Z,26.77
2019-02-16T17:29:59.546Z,26.55
2019-02-16T17:36:42.193Z,29.00
2019-02-16T17:42:53.799Z,29.55
2019-02-16T17:49:18.598Z,29.27
2019-02-16T17:55:40.890Z,28.90
2019-02-16T18:02:02.766Z,29.55
2019-02-16T18:08:28.837Z,27.93
2019-02-16T18:14:51.281Z,26.50
2019-02-16T18:21:10.884Z,29.20
2019-02-16T18:27:35.640Z,29.23
2019-02-16T18:34:06.098Z,32.33
2019-02-16T18:40:28.017Z,31.42
2019-02-16T18:46:38.928Z,32.10
2019-02-16T18:53:00.974Z,34.13
2019-02-16T18:59:13.321Z,34.73
2019-02-16T19:05:30.832Z,35.55
2019-02-16T19:11:59.982Z,35.35
2019-02-16T19:18:23.574Z,38.02
2019-02-16T19:24:37.968Z,36.13
2019-02-16T19:31:07.102Z,35.15
2019-02-16T19:37:30.393Z,37.65
2019-02-16T19:43:43.644Z,35.90
2019-02-16T19:50:22.222Z,41.77
2019-02-16T19:56:36.475Z,40.83
2019-02-16T20:03:05.559Z,38.83
2019-02-16T20:09:31.043Z,40.05
2019-02-16T20:16:03.189Z,37.48
2019-02-16T20:22:19.722Z,37.08
2019-02-16T20:28:41.674Z,36.05
2019-02-16T20:35:14.535Z,38.13
2019-02-16T20:41:40.981Z,38.65
2019-02-16T20:48:02.772Z,38.80
2019-02-16T20:54:26.098Z,37.83
2019-02-16T21:00:38.489Z,36.75
2019-02-16T21:07:01.030Z,41.55
2019-02-16T21:13:20.173Z,53.13
2019-02-16T21:19:52.439Z,37.55
2019-02-16T21:26:37.102Z,36.98
2019-02-16T21:32:46.914Z,39.15
2019-02-16T21:39:13.201Z,39.83
2019-02-16T21:45:48.838Z,36.98
2019-02-16T21:52:10.063Z,35.50
2019-02-16T21:58:48.352Z,36.80
2019-02-16T22:05:17.827Z,37.48
2019-02-16T22:11:47.325Z,36.85
2019-02-16T22:17:51.730Z,36.60
2019-02-16T22:23:55.966Z,37.28
2019-02-16T22:30:00.238Z,35.48
2019-02-16T22:36:04.463Z,37.45
2019-02-16T22:42:08.732Z,37.23
2019-02-16T22:48:12.975Z,35.03
2019-02-16T22:54:17.383Z,36.23
2019-02-16T23:00:39.562Z,35.75
2019-02-16T23:06:43.857Z,36.33
2019-02-16T23:12:48.336Z,36.83
2019-02-16T23:18:52.652Z,34.67
2019-02-16T23:24:56.940Z,37.10
2019-02-16T23:31:01.226Z,35.20
2019-02-16T23:37:05.417Z,36.70
2019-02-16T23:43:09.670Z,36.10
2019-02-16T23:49:13.878Z,37.78
2019-02-16T23:55:18.106Z,36.25
